sensor_id;sensor_type;location;lat;lon;timestamp;P1;durP1;ratioP1;P2;durP2;ratioP2
72127;SDS011;60000;51.030;7.024;2023-05-01T00:01:21;3.27;;;1.10;;
72127;SDS011;60000;51.030;7.024;2023-05-01T00:03:47;2.63;;;0.80;;
72127;SDS011;60000;51.030;7.024;2023-05-01T00:06:12;2.23;;;0.90;;
72127;SDS011;60000;51.030;7.024;2023-05-01T00:08:37;1.70;;;0.70;;
72127;SDS011;60000;51.030;7.024;2023-05-01T00:11:03;2.00;;;0.80;;
72127;SDS011;60000;51.030;7.024;2023-05-01T00:13:29;2.70;;;1.07;;
72127;SDS011;60000;51.030;7.024;2023-05-01T00:15:55;2.05;;;0.80;;
72127;SDS011;60000;51.030;7.024;2023-05-01T00:18:20;2.97;;;1.00;;
72127;SDS011;60000;51.030;7.024;2023-05-01T00:20:46;2.67;;;1.10;;
72127;SDS011;60000;51.030;7.024;2023-05-01T00:23:11;2.67;;;0.90;;
72127;SDS011;60000;51.030;7.024;2023-05-01T00:25:37;2.90;;;0.85;;
72127;SDS011;60000;51.030;7.024;2023-05-01T00:28:03;2.92;;;0.90;;
72127;SDS011;60000;51.030;7.024;2023-05-01T00:30:30;2.92;;;0.95;;
72127;SDS011;60000;51.030;7.024;2023-05-01T00:32:56;3.63;;;0.90;;
72127;SDS011;60000;51.030;7.024;2023-05-01T00:35:22;2.65;;;0.90;;
72127;SDS011;60000;51.030;7.024;2023-05-01T00:37:47;3.67;;;1.10;;
72127;SDS011;60000;51.030;7.024;2023-05-01T00:40:13;2.83;;;1.10;;
72127;SDS011;60000;51.030;7.024;2023-05-01T00:42:38;3.77;;;1.30;;
72127;SDS011;60000;51.030;7.024;2023-05-01T00:45:05;2.90;;;1.20;;
72127;SDS011;60000;51.030;7.024;2023-05-01T00:47:32;3.58;;;1.30;;
72127;SDS011;60000;51.030;7.024;2023-05-01T00:49:59;2.45;;;1.05;;
72127;SDS011;60000;51.030;7.024;2023-05-01T00:52:25;2.58;;;1.00;;
72127;SDS011;60000;51.030;7.024;2023-05-01T00:54:50;3.00;;;0.93;;
72127;SDS011;60000;51.030;7.024;2023-05-01T00:57:17;3.40;;;1.08;;
72127;SDS011;60000;51.030;7.024;2023-05-01T00:59:43;3.33;;;1.00;;
72127;SDS011;60000;51.030;7.024;2023-05-01T01:02:09;2.60;;;1.00;;
72127;SDS011;60000;51.030;7.024;2023-05-01T01:04:36;2.70;;;0.90;;
72127;SDS011;60000;51.030;7.024;2023-05-01T01:07:17;3.13;;;1.10;;
72127;SDS011;60000;51.030;7.024;2023-05-01T01:13:01;2.55;;;0.90;;
72127;SDS011;60000;51.030;7.024;2023-05-01T01:15:39;2.90;;;1.00;;
72127;SDS011;60000;51.030;7.024;2023-05-01T01:18:15;2.83;;;0.98;;
72127;SDS011;60000;51.030;7.024;2023-05-01T01:29:43;2.85;;;1.10;;
72127;SDS011;60000;51.030;7.024;2023-05-01T01:35:17;2.83;;;1.00;;
72127;SDS011;60000;51.030;7.024;2023-05-01T01:37:59;2.80;;;1.00;;
72127;SDS011;60000;51.030;7.024;2023-05-01T01:40:31;4.38;;;1.30;;
72127;SDS011;60000;51.030;7.024;2023-05-01T01:43:06;2.53;;;1.10;;
72127;SDS011;60000;51.030;7.024;2023-05-01T01:45:39;2.85;;;1.02;;
72127;SDS011;60000;51.030;7.024;2023-05-01T01:48:07;2.72;;;1.20;;
72127;SDS011;60000;51.030;7.024;2023-05-01T01:50:36;3.33;;;1.20;;
72127;SDS011;60000;51.030;7.024;2023-05-01T01:53:03;4.30;;;1.10;;
72127;SDS011;60000;51.030;7.024;2023-05-01T01:55:31;3.15;;;1.33;;
72127;SDS011;60000;51.030;7.024;2023-05-01T01:57:59;3.10;;;1.20;;
72127;SDS011;60000;51.030;7.024;2023-05-01T02:00:26;3.50;;;1.10;;
72127;SDS011;60000;51.030;7.024;2023-05-01T02:02:53;2.90;;;1.00;;
72127;SDS011;60000;51.030;7.024;2023-05-01T02:05:19;3.38;;;1.10;;
72127;SDS011;60000;51.030;7.024;2023-05-01T02:07:47;3.30;;;1.25;;
72127;SDS011;60000;51.030;7.024;2023-05-01T02:10:14;3.08;;;1.10;;
72127;SDS011;60000;51.030;7.024;2023-05-01T02:12:40;2.77;;;1.13;;
72127;SDS011;60000;51.030;7.024;2023-05-01T02:15:08;2.50;;;1.00;;
72127;SDS011;60000;51.030;7.024;2023-05-01T02:17:35;2.85;;;1.10;;
72127;SDS011;60000;51.030;7.024;2023-05-01T02:20:02;3.47;;;1.08;;
72127;SDS011;60000;51.030;7.024;2023-05-01T02:22:29;2.67;;;1.00;;
72127;SDS011;60000;51.030;7.024;2023-05-01T02:24:55;2.70;;;0.97;;
72127;SDS011;60000;51.030;7.024;2023-05-01T02:27:25;2.70;;;0.90;;
72127;SDS011;60000;51.030;7.024;2023-05-01T02:30:02;2.00;;;0.82;;
72127;SDS011;60000;51.030;7.024;2023-05-01T02:32:29;3.08;;;1.10;;
72127;SDS011;60000;51.030;7.024;2023-05-01T02:34:55;2.67;;;1.17;;
72127;SDS011;60000;51.030;7.024;2023-05-01T02:37:21;4.30;;;1.40;;
72127;SDS011;60000;51.030;7.024;2023-05-01T02:39:46;3.70;;;1.23;;
72127;SDS011;60000;51.030;7.024;2023-05-01T02:42:12;3.60;;;1.20;;
72127;SDS011;60000;51.030;7.024;2023-05-01T02:44:46;4.40;;;1.10;;
72127;SDS011;60000;51.030;7.024;2023-05-01T02:47:19;2.80;;;1.00;;
72127;SDS011;60000;51.030;7.024;2023-05-01T02:49:47;3.57;;;1.13;;
72127;SDS011;60000;51.030;7.024;2023-05-01T02:52:14;2.88;;;1.10;;
72127;SDS011;60000;51.030;7.024;2023-05-01T02:54:41;3.33;;;1.20;;
72127;SDS011;60000;51.030;7.024;2023-05-01T02:57:11;2.88;;;1.00;;
72127;SDS011;60000;51.030;7.024;2023-05-01T02:59:36;3.23;;;1.20;;
72127;SDS011;60000;51.030;7.024;2023-05-01T03:02:02;3.25;;;1.30;;
72127;SDS011;60000;51.030;7.024;2023-05-01T03:04:27;3.58;;;1.33;;
72127;SDS011;60000;51.030;7.024;2023-05-01T03:06:53;3.83;;;1.30;;
72127;SDS011;60000;51.030;7.024;2023-05-01T03:09:19;3.50;;;1.50;;
72127;SDS011;60000;51.030;7.024;2023-05-01T03:11:45;3.83;;;1.40;;
72127;SDS011;60000;51.030;7.024;2023-05-01T03:14:10;3.33;;;1.33;;
72127;SDS011;60000;51.030;7.024;2023-05-01T03:16:36;3.10;;;1.13;;
72127;SDS011;60000;51.030;7.024;2023-05-01T03:19:01;3.67;;;1.30;;
72127;SDS011;60000;51.030;7.024;2023-05-01T03:21:27;3.58;;;1.30;;
72127;SDS011;60000;51.030;7.024;2023-05-01T03:23:52;3.27;;;1.27;;
72127;SDS011;60000;51.030;7.024;2023-05-01T03:26:18;4.27;;;1.37;;
72127;SDS011;60000;51.030;7.024;2023-05-01T03:28:43;3.58;;;1.50;;
72127;SDS011;60000;51.030;7.024;2023-05-01T03:31:09;2.80;;;1.10;;
72127;SDS011;60000;51.030;7.024;2023-05-01T03:33:34;2.80;;;1.17;;
72127;SDS011;60000;51.030;7.024;2023-05-01T03:36:00;3.43;;;1.20;;
72127;SDS011;60000;51.030;7.024;2023-05-01T03:38:28;2.70;;;1.10;;
72127;SDS011;60000;51.030;7.024;2023-05-01T03:40:54;3.75;;;1.15;;
72127;SDS011;60000;51.030;7.024;2023-05-01T03:43:20;2.28;;;0.93;;
72127;SDS011;60000;51.030;7.024;2023-05-01T03:45:46;3.20;;;1.13;;
72127;SDS011;60000;51.030;7.024;2023-05-01T03:48:11;3.37;;;1.20;;
72127;SDS011;60000;51.030;7.024;2023-05-01T03:50:38;2.70;;;1.00;;
72127;SDS011;60000;51.030;7.024;2023-05-01T03:53:03;2.53;;;1.10;;
72127;SDS011;60000;51.030;7.024;2023-05-01T03:55:28;2.80;;;1.00;;
72127;SDS011;60000;51.030;7.024;2023-05-01T03:57:54;4.75;;;1.30;;
72127;SDS011;60000;51.030;7.024;2023-05-01T04:00:19;2.60;;;1.00;;
72127;SDS011;60000;51.030;7.024;2023-05-01T04:02:45;3.30;;;1.20;;
72127;SDS011;60000;51.030;7.024;2023-05-01T04:05:11;2.65;;;1.00;;
72127;SDS011;60000;51.030;7.024;2023-05-01T04:07:37;3.20;;;1.10;;
72127;SDS011;60000;51.030;7.024;2023-05-01T04:10:02;2.97;;;1.10;;
72127;SDS011;60000;51.030;7.024;2023-05-01T04:12:28;2.90;;;1.27;;
72127;SDS011;60000;51.030;7.024;2023-05-01T04:14:54;2.27;;;0.90;;
72127;SDS011;60000;51.030;7.024;2023-05-01T04:17:19;2.70;;;1.10;;
72127;SDS011;60000;51.030;7.024;2023-05-01T04:19:44;3.30;;;1.30;;
72127;SDS011;60000;51.030;7.024;2023-05-01T04:22:11;3.20;;;1.20;;
72127;SDS011;60000;51.030;7.024;2023-05-01T04:24:37;2.67;;;1.07;;
72127;SDS011;60000;51.030;7.024;2023-05-01T04:27:02;3.00;;;1.07;;
72127;SDS011;60000;51.030;7.024;2023-05-01T04:29:29;3.20;;;1.02;;
72127;SDS011;60000;51.030;7.024;2023-05-01T04:31:55;2.97;;;1.20;;
72127;SDS011;60000;51.030;7.024;2023-05-01T04:34:20;2.73;;;1.20;;
72127;SDS011;60000;51.030;7.024;2023-05-01T04:36:45;3.03;;;1.17;;
72127;SDS011;60000;51.030;7.024;2023-05-01T04:39:10;2.97;;;1.17;;
72127;SDS011;60000;51.030;7.024;2023-05-01T04:41:36;3.38;;;1.38;;
72127;SDS011;60000;51.030;7.024;2023-05-01T04:44:01;2.97;;;1.10;;
72127;SDS011;60000;51.030;7.024;2023-05-01T04:46:27;3.17;;;1.10;;
72127;SDS011;60000;51.030;7.024;2023-05-01T04:48:52;2.80;;;1.00;;
72127;SDS011;60000;51.030;7.024;2023-05-01T04:51:17;2.27;;;0.90;;
72127;SDS011;60000;51.030;7.024;2023-05-01T04:53:43;3.53;;;1.13;;
72127;SDS011;60000;51.030;7.024;2023-05-01T04:56:09;3.10;;;1.20;;
72127;SDS011;60000;51.030;7.024;2023-05-01T04:58:34;2.97;;;1.20;;
72127;SDS011;60000;51.030;7.024;2023-05-01T05:00:59;3.40;;;1.40;;
72127;SDS011;60000;51.030;7.024;2023-05-01T05:03:25;2.97;;;1.00;;
72127;SDS011;60000;51.030;7.024;2023-05-01T05:05:51;2.75;;;1.15;;
72127;SDS011;60000;51.030;7.024;2023-05-01T05:08:16;3.03;;;1.20;;
72127;SDS011;60000;51.030;7.024;2023-05-01T05:10:41;2.97;;;1.23;;
72127;SDS011;60000;51.030;7.024;2023-05-01T05:13:07;3.27;;;1.20;;
72127;SDS011;60000;51.030;7.024;2023-05-01T05:15:33;4.97;;;1.30;;
72127;SDS011;60000;51.030;7.024;2023-05-01T05:17:59;3.97;;;1.40;;
72127;SDS011;60000;51.030;7.024;2023-05-01T05:20:24;3.70;;;1.30;;
72127;SDS011;60000;51.030;7.024;2023-05-01T05:22:50;3.50;;;1.30;;
72127;SDS011;60000;51.030;7.024;2023-05-01T05:25:16;4.03;;;1.20;;
72127;SDS011;60000;51.030;7.024;2023-05-01T05:27:41;3.65;;;1.42;;
72127;SDS011;60000;51.030;7.024;2023-05-01T05:30:07;3.87;;;1.37;;
72127;SDS011;60000;51.030;7.024;2023-05-01T05:32:33;6.05;;;1.73;;
72127;SDS011;60000;51.030;7.024;2023-05-01T05:34:58;5.23;;;1.60;;
72127;SDS011;60000;51.030;7.024;2023-05-01T05:37:24;4.07;;;1.50;;
72127;SDS011;60000;51.030;7.024;2023-05-01T05:39:50;4.03;;;1.50;;
72127;SDS011;60000;51.030;7.024;2023-05-01T05:42:15;3.33;;;1.30;;
72127;SDS011;60000;51.030;7.024;2023-05-01T05:44:41;3.60;;;1.35;;
72127;SDS011;60000;51.030;7.024;2023-05-01T05:47:06;3.73;;;1.30;;
72127;SDS011;60000;51.030;7.024;2023-05-01T05:49:31;3.60;;;1.37;;
72127;SDS011;60000;51.030;7.024;2023-05-01T05:51:57;5.20;;;1.80;;
72127;SDS011;60000;51.030;7.024;2023-05-01T05:54:22;4.70;;;1.70;;
72127;SDS011;60000;51.030;7.024;2023-05-01T05:56:47;4.67;;;1.80;;
72127;SDS011;60000;51.030;7.024;2023-05-01T05:59:13;4.27;;;1.80;;
72127;SDS011;60000;51.030;7.024;2023-05-01T06:01:38;4.07;;;1.70;;
72127;SDS011;60000;51.030;7.024;2023-05-01T06:04:04;5.03;;;1.70;;
72127;SDS011;60000;51.030;7.024;2023-05-01T06:06:30;4.53;;;1.70;;
72127;SDS011;60000;51.030;7.024;2023-05-01T06:08:56;5.27;;;1.80;;
72127;SDS011;60000;51.030;7.024;2023-05-01T06:11:21;4.72;;;1.90;;
72127;SDS011;60000;51.030;7.024;2023-05-01T06:13:47;5.40;;;1.70;;
72127;SDS011;60000;51.030;7.024;2023-05-01T06:16:12;4.77;;;1.50;;
72127;SDS011;60000;51.030;7.024;2023-05-01T06:18:39;4.97;;;1.77;;
72127;SDS011;60000;51.030;7.024;2023-05-01T06:21:04;5.20;;;1.90;;
72127;SDS011;60000;51.030;7.024;2023-05-01T06:23:30;5.88;;;2.13;;
72127;SDS011;60000;51.030;7.024;2023-05-01T06:25:55;5.23;;;1.87;;
72127;SDS011;60000;51.030;7.024;2023-05-01T06:28:21;4.37;;;1.90;;
72127;SDS011;60000;51.030;7.024;2023-05-01T06:30:46;7.57;;;1.83;;
72127;SDS011;60000;51.030;7.024;2023-05-01T06:33:12;5.97;;;2.28;;
72127;SDS011;60000;51.030;7.024;2023-05-01T06:35:38;4.47;;;1.80;;
72127;SDS011;60000;51.030;7.024;2023-05-01T06:38:04;5.07;;;1.67;;
72127;SDS011;60000;51.030;7.024;2023-05-01T06:40:29;5.00;;;1.50;;
72127;SDS011;60000;51.030;7.024;2023-05-01T06:42:56;5.93;;;2.22;;
72127;SDS011;60000;51.030;7.024;2023-05-01T06:45:21;6.60;;;2.25;;
72127;SDS011;60000;51.030;7.024;2023-05-01T06:47:47;6.63;;;2.07;;
72127;SDS011;60000;51.030;7.024;2023-05-01T06:50:12;3.97;;;1.60;;
72127;SDS011;60000;51.030;7.024;2023-05-01T06:52:38;5.43;;;1.80;;
72127;SDS011;60000;51.030;7.024;2023-05-01T06:55:04;5.47;;;1.67;;
72127;SDS011;60000;51.030;7.024;2023-05-01T06:57:30;5.95;;;1.80;;
72127;SDS011;60000;51.030;7.024;2023-05-01T06:59:55;4.73;;;2.00;;
72127;SDS011;60000;51.030;7.024;2023-05-01T07:02:20;4.60;;;1.70;;
72127;SDS011;60000;51.030;7.024;2023-05-01T07:04:46;7.47;;;1.80;;
72127;SDS011;60000;51.030;7.024;2023-05-01T07:07:11;4.30;;;1.57;;
72127;SDS011;60000;51.030;7.024;2023-05-01T07:09:36;4.03;;;1.73;;
72127;SDS011;60000;51.030;7.024;2023-05-01T07:12:02;4.85;;;1.90;;
72127;SDS011;60000;51.030;7.024;2023-05-01T07:14:29;6.78;;;2.05;;
72127;SDS011;60000;51.030;7.024;2023-05-01T07:16:55;5.67;;;2.13;;
72127;SDS011;60000;51.030;7.024;2023-05-01T07:19:20;5.00;;;1.67;;
72127;SDS011;60000;51.030;7.024;2023-05-01T07:21:45;5.37;;;2.07;;
72127;SDS011;60000;51.030;7.024;2023-05-01T07:24:11;5.93;;;2.20;;
72127;SDS011;60000;51.030;7.024;2023-05-01T07:26:37;5.13;;;2.30;;
72127;SDS011;60000;51.030;7.024;2023-05-01T07:29:02;7.47;;;2.15;;
72127;SDS011;60000;51.030;7.024;2023-05-01T07:31:28;7.77;;;1.90;;
72127;SDS011;60000;51.030;7.024;2023-05-01T07:33:53;5.40;;;2.03;;
72127;SDS011;60000;51.030;7.024;2023-05-01T07:36:19;6.77;;;2.70;;
72127;SDS011;60000;51.030;7.024;2023-05-01T07:38:46;6.43;;;2.20;;
72127;SDS011;60000;51.030;7.024;2023-05-01T07:41:12;4.22;;;1.90;;
72127;SDS011;60000;51.030;7.024;2023-05-01T07:43:37;7.50;;;2.40;;
72127;SDS011;60000;51.030;7.024;2023-05-01T07:46:02;9.50;;;2.43;;
72127;SDS011;60000;51.030;7.024;2023-05-01T07:48:28;6.13;;;2.10;;
72127;SDS011;60000;51.030;7.024;2023-05-01T07:50:54;5.27;;;1.80;;
72127;SDS011;60000;51.030;7.024;2023-05-01T07:53:20;5.10;;;1.80;;
72127;SDS011;60000;51.030;7.024;2023-05-01T07:55:48;5.57;;;2.20;;
72127;SDS011;60000;51.030;7.024;2023-05-01T07:58:14;4.70;;;1.97;;
72127;SDS011;60000;51.030;7.024;2023-05-01T08:00:40;4.82;;;1.92;;
72127;SDS011;60000;51.030;7.024;2023-05-01T08:03:08;7.65;;;2.50;;
72127;SDS011;60000;51.030;7.024;2023-05-01T08:05:34;6.20;;;2.27;;
72127;SDS011;60000;51.030;7.024;2023-05-01T08:07:59;5.53;;;2.35;;
72127;SDS011;60000;51.030;7.024;2023-05-01T08:10:25;6.97;;;1.80;;
72127;SDS011;60000;51.030;7.024;2023-05-01T08:12:51;4.50;;;1.80;;
72127;SDS011;60000;51.030;7.024;2023-05-01T08:15:16;4.80;;;1.87;;
72127;SDS011;60000;51.030;7.024;2023-05-01T08:17:42;6.27;;;2.90;;
72127;SDS011;60000;51.030;7.024;2023-05-01T08:20:07;6.73;;;1.97;;
72127;SDS011;60000;51.030;7.024;2023-05-01T08:22:33;5.53;;;2.28;;
72127;SDS011;60000;51.030;7.024;2023-05-01T08:24:58;7.10;;;2.00;;
72127;SDS011;60000;51.030;7.024;2023-05-01T08:27:24;6.13;;;2.10;;
72127;SDS011;60000;51.030;7.024;2023-05-01T08:29:49;5.45;;;2.00;;
72127;SDS011;60000;51.030;7.024;2023-05-01T08:32:16;4.50;;;1.90;;
72127;SDS011;60000;51.030;7.024;2023-05-01T08:34:42;4.35;;;1.92;;
72127;SDS011;60000;51.030;7.024;2023-05-01T08:37:07;6.37;;;2.50;;
72127;SDS011;60000;51.030;7.024;2023-05-01T08:39:33;5.00;;;2.03;;
72127;SDS011;60000;51.030;7.024;2023-05-01T08:41:58;4.33;;;1.70;;
72127;SDS011;60000;51.030;7.024;2023-05-01T08:44:24;5.53;;;2.10;;
72127;SDS011;60000;51.030;7.024;2023-05-01T08:47:32;5.80;;;2.30;;
72127;SDS011;60000;51.030;7.024;2023-05-01T08:49:43;5.05;;;2.00;;
72127;SDS011;60000;51.030;7.024;2023-05-01T08:52:10;6.10;;;2.60;;
72127;SDS011;60000;51.030;7.024;2023-05-01T08:54:37;4.47;;;1.95;;
72127;SDS011;60000;51.030;7.024;2023-05-01T08:57:06;6.33;;;2.23;;
72127;SDS011;60000;51.030;7.024;2023-05-01T08:59:33;4.85;;;1.80;;
72127;SDS011;60000;51.030;7.024;2023-05-01T09:02:00;5.10;;;1.83;;
72127;SDS011;60000;51.030;7.024;2023-05-01T09:04:31;4.78;;;1.83;;
72127;SDS011;60000;51.030;7.024;2023-05-01T09:06:59;4.75;;;1.95;;
72127;SDS011;60000;51.030;7.024;2023-05-01T09:09:26;4.40;;;2.00;;
72127;SDS011;60000;51.030;7.024;2023-05-01T09:11:55;5.88;;;2.13;;
72127;SDS011;60000;51.030;7.024;2023-05-01T09:14:24;5.05;;;2.10;;
72127;SDS011;60000;51.030;7.024;2023-05-01T09:16:50;5.63;;;2.10;;
72127;SDS011;60000;51.030;7.024;2023-05-01T09:19:15;4.47;;;2.00;;
72127;SDS011;60000;51.030;7.024;2023-05-01T09:21:41;4.87;;;1.73;;
72127;SDS011;60000;51.030;7.024;2023-05-01T09:24:07;4.80;;;1.80;;
72127;SDS011;60000;51.030;7.024;2023-05-01T09:26:32;6.90;;;2.88;;
72127;SDS011;60000;51.030;7.024;2023-05-01T09:29:00;7.27;;;2.10;;
72127;SDS011;60000;51.030;7.024;2023-05-01T09:31:27;6.10;;;2.00;;
72127;SDS011;60000;51.030;7.024;2023-05-01T09:33:57;5.38;;;1.80;;
72127;SDS011;60000;51.030;7.024;2023-05-01T09:36:31;6.28;;;2.50;;
72127;SDS011;60000;51.030;7.024;2023-05-01T09:38:58;5.20;;;2.17;;
72127;SDS011;60000;51.030;7.024;2023-05-01T09:41:24;4.82;;;1.83;;
72127;SDS011;60000;51.030;7.024;2023-05-01T09:43:54;5.70;;;2.10;;
72127;SDS011;60000;51.030;7.024;2023-05-01T09:46:21;4.85;;;2.20;;
72127;SDS011;60000;51.030;7.024;2023-05-01T09:49:06;5.45;;;2.00;;
72127;SDS011;60000;51.030;7.024;2023-05-01T09:51:31;4.33;;;1.63;;
72127;SDS011;60000;51.030;7.024;2023-05-01T09:53:58;4.95;;;1.83;;
72127;SDS011;60000;51.030;7.024;2023-05-01T09:56:26;7.82;;;2.15;;
72127;SDS011;60000;51.030;7.024;2023-05-01T09:58:53;5.90;;;1.70;;
72127;SDS011;60000;51.030;7.024;2023-05-01T10:01:39;5.32;;;2.08;;
72127;SDS011;60000;51.030;7.024;2023-05-01T10:04:05;4.40;;;1.97;;
72127;SDS011;60000;51.030;7.024;2023-05-01T10:06:31;5.45;;;2.00;;
72127;SDS011;60000;51.030;7.024;2023-05-01T10:08:56;5.27;;;1.80;;
72127;SDS011;60000;51.030;7.024;2023-05-01T10:11:22;5.60;;;1.92;;
72127;SDS011;60000;51.030;7.024;2023-05-01T10:16:33;5.03;;;1.98;;
72127;SDS011;60000;51.030;7.024;2023-05-01T10:18:59;4.05;;;1.75;;
72127;SDS011;60000;51.030;7.024;2023-05-01T10:21:25;5.10;;;1.97;;
72127;SDS011;60000;51.030;7.024;2023-05-01T10:23:52;4.55;;;1.80;;
72127;SDS011;60000;51.030;7.024;2023-05-01T10:26:18;4.68;;;1.92;;
72127;SDS011;60000;51.030;7.024;2023-05-01T10:28:45;4.40;;;1.63;;
72127;SDS011;60000;51.030;7.024;2023-05-01T10:31:11;5.60;;;1.83;;
72127;SDS011;60000;51.030;7.024;2023-05-01T10:33:37;4.95;;;1.83;;
72127;SDS011;60000;51.030;7.024;2023-05-01T10:36:04;4.80;;;1.90;;
72127;SDS011;60000;51.030;7.024;2023-05-01T10:38:35;4.65;;;1.92;;
72127;SDS011;60000;51.030;7.024;2023-05-01T10:41:02;5.20;;;1.90;;
72127;SDS011;60000;51.030;7.024;2023-05-01T10:43:31;3.83;;;1.60;;
72127;SDS011;60000;51.030;7.024;2023-05-01T10:51:09;4.38;;;1.67;;
72127;SDS011;60000;51.030;7.024;2023-05-01T10:53:38;4.35;;;1.73;;
72127;SDS011;60000;51.030;7.024;2023-05-01T10:56:05;4.77;;;1.70;;
72127;SDS011;60000;51.030;7.024;2023-05-01T10:58:57;4.60;;;1.75;;
72127;SDS011;60000;51.030;7.024;2023-05-01T11:01:30;5.03;;;1.65;;
72127;SDS011;60000;51.030;7.024;2023-05-01T11:03:57;3.55;;;1.35;;
72127;SDS011;60000;51.030;7.024;2023-05-01T11:06:24;5.15;;;1.90;;
72127;SDS011;60000;51.030;7.024;2023-05-01T11:08:50;6.03;;;1.60;;
72127;SDS011;60000;51.030;7.024;2023-05-01T11:21:44;4.30;;;1.65;;
72127;SDS011;60000;51.030;7.024;2023-05-01T11:24:10;4.00;;;1.48;;
72127;SDS011;60000;51.030;7.024;2023-05-01T11:26:39;3.50;;;1.40;;
72127;SDS011;60000;51.030;7.024;2023-05-01T11:29:06;3.90;;;1.60;;
72127;SDS011;60000;51.030;7.024;2023-05-01T11:31:34;5.07;;;1.75;;
72127;SDS011;60000;51.030;7.024;2023-05-01T11:34:01;3.80;;;1.48;;
72127;SDS011;60000;51.030;7.024;2023-05-01T11:36:27;4.40;;;1.73;;
72127;SDS011;60000;51.030;7.024;2023-05-01T11:38:54;4.00;;;1.52;;
72127;SDS011;60000;51.030;7.024;2023-05-01T11:41:21;3.95;;;1.30;;
72127;SDS011;60000;51.030;7.024;2023-05-01T11:43:50;4.35;;;1.80;;
72127;SDS011;60000;51.030;7.024;2023-05-01T11:48:51;4.80;;;1.80;;
72127;SDS011;60000;51.030;7.024;2023-05-01T11:51:20;4.18;;;1.60;;
72127;SDS011;60000;51.030;7.024;2023-05-01T11:56:34;5.60;;;1.98;;
72127;SDS011;60000;51.030;7.024;2023-05-01T11:59:10;4.93;;;1.90;;
72127;SDS011;60000;51.030;7.024;2023-05-01T12:01:39;4.53;;;2.00;;
72127;SDS011;60000;51.030;7.024;2023-05-01T12:04:08;4.78;;;1.90;;
72127;SDS011;60000;51.030;7.024;2023-05-01T12:06:38;3.90;;;1.85;;
72127;SDS011;60000;51.030;7.024;2023-05-01T12:09:19;5.10;;;1.70;;
72127;SDS011;60000;51.030;7.024;2023-05-01T12:11:46;4.43;;;1.73;;
72127;SDS011;60000;51.030;7.024;2023-05-01T12:14:13;4.57;;;2.00;;
72127;SDS011;60000;51.030;7.024;2023-05-01T12:16:40;3.83;;;1.52;;
72127;SDS011;60000;51.030;7.024;2023-05-01T12:19:06;4.25;;;1.50;;
72127;SDS011;60000;51.030;7.024;2023-05-01T12:21:33;3.58;;;1.70;;
72127;SDS011;60000;51.030;7.024;2023-05-01T12:24:08;5.00;;;1.80;;
72127;SDS011;60000;51.030;7.024;2023-05-01T12:26:34;5.10;;;2.57;;
72127;SDS011;60000;51.030;7.024;2023-05-01T12:29:04;4.63;;;1.70;;
72127;SDS011;60000;51.030;7.024;2023-05-01T12:31:32;5.38;;;1.80;;
72127;SDS011;60000;51.030;7.024;2023-05-01T12:33:59;4.15;;;1.45;;
72127;SDS011;60000;51.030;7.024;2023-05-01T12:36:25;2.65;;;1.20;;
72127;SDS011;60000;51.030;7.024;2023-05-01T12:38:57;5.60;;;1.50;;
72127;SDS011;60000;51.030;7.024;2023-05-01T12:41:40;5.97;;;1.40;;
72127;SDS011;60000;51.030;7.024;2023-05-01T12:44:16;4.03;;;1.30;;
72127;SDS011;60000;51.030;7.024;2023-05-01T12:46:53;4.07;;;1.48;;
72127;SDS011;60000;51.030;7.024;2023-05-01T12:49:28;4.78;;;1.60;;
72127;SDS011;60000;51.030;7.024;2023-05-01T12:51:55;3.30;;;1.27;;
72127;SDS011;60000;51.030;7.024;2023-05-01T12:54:31;2.95;;;1.20;;
72127;SDS011;60000;51.030;7.024;2023-05-01T12:59:40;3.88;;;1.40;;
72127;SDS011;60000;51.030;7.024;2023-05-01T13:02:07;4.03;;;1.20;;
72127;SDS011;60000;51.030;7.024;2023-05-01T13:04:38;3.37;;;1.33;;
72127;SDS011;60000;51.030;7.024;2023-05-01T13:09:50;2.45;;;0.95;;
72127;SDS011;60000;51.030;7.024;2023-05-01T13:12:17;3.55;;;1.20;;
72127;SDS011;60000;51.030;7.024;2023-05-01T13:14:43;2.60;;;1.13;;
72127;SDS011;60000;51.030;7.024;2023-05-01T13:17:09;3.20;;;1.20;;
72127;SDS011;60000;51.030;7.024;2023-05-01T13:19:36;3.55;;;0.98;;
72127;SDS011;60000;51.030;7.024;2023-05-01T13:22:03;2.35;;;1.08;;
72127;SDS011;60000;51.030;7.024;2023-05-01T13:24:39;3.43;;;1.20;;
72127;SDS011;60000;51.030;7.024;2023-05-01T13:27:09;2.90;;;1.20;;
72127;SDS011;60000;51.030;7.024;2023-05-01T13:29:36;2.40;;;1.10;;
72127;SDS011;60000;51.030;7.024;2023-05-01T13:32:09;3.38;;;1.10;;
72127;SDS011;60000;51.030;7.024;2023-05-01T13:34:35;2.60;;;1.05;;
72127;SDS011;60000;51.030;7.024;2023-05-01T13:37:07;3.13;;;1.10;;
72127;SDS011;60000;51.030;7.024;2023-05-01T13:39:34;3.00;;;1.17;;
72127;SDS011;60000;51.030;7.024;2023-05-01T13:42:00;3.35;;;1.40;;
72127;SDS011;60000;51.030;7.024;2023-05-01T13:44:27;3.37;;;1.10;;
72127;SDS011;60000;51.030;7.024;2023-05-01T13:46:54;2.55;;;1.10;;
72127;SDS011;60000;51.030;7.024;2023-05-01T13:49:20;2.72;;;1.00;;
72127;SDS011;60000;51.030;7.024;2023-05-01T13:51:48;4.13;;;1.50;;
72127;SDS011;60000;51.030;7.024;2023-05-01T13:54:14;3.75;;;1.30;;
72127;SDS011;60000;51.030;7.024;2023-05-01T13:56:41;3.33;;;1.20;;
72127;SDS011;60000;51.030;7.024;2023-05-01T13:59:06;2.50;;;1.10;;
72127;SDS011;60000;51.030;7.024;2023-05-01T14:01:39;2.90;;;1.10;;
72127;SDS011;60000;51.030;7.024;2023-05-01T14:04:09;2.70;;;1.00;;
72127;SDS011;60000;51.030;7.024;2023-05-01T14:06:42;3.42;;;1.42;;
72127;SDS011;60000;51.030;7.024;2023-05-01T14:09:09;3.28;;;1.40;;
72127;SDS011;60000;51.030;7.024;2023-05-01T14:11:45;5.32;;;2.17;;
72127;SDS011;60000;51.030;7.024;2023-05-01T14:14:15;3.37;;;1.50;;
72127;SDS011;60000;51.030;7.024;2023-05-01T14:16:42;3.47;;;1.40;;
72127;SDS011;60000;51.030;7.024;2023-05-01T14:19:13;5.68;;;1.50;;
72127;SDS011;60000;51.030;7.024;2023-05-01T14:21:40;4.70;;;1.75;;
72127;SDS011;60000;51.030;7.024;2023-05-01T14:24:07;6.22;;;2.10;;
72127;SDS011;60000;51.030;7.024;2023-05-01T14:26:33;5.60;;;1.97;;
72127;SDS011;60000;51.030;7.024;2023-05-01T14:28:58;6.20;;;2.00;;
72127;SDS011;60000;51.030;7.024;2023-05-01T14:31:27;5.10;;;2.33;;
72127;SDS011;60000;51.030;7.024;2023-05-01T14:34:00;6.70;;;2.30;;
72127;SDS011;60000;51.030;7.024;2023-05-01T14:36:30;6.50;;;2.22;;
72127;SDS011;60000;51.030;7.024;2023-05-01T14:38:57;7.07;;;2.00;;
72127;SDS011;60000;51.030;7.024;2023-05-01T14:41:23;5.47;;;2.38;;
72127;SDS011;60000;51.030;7.024;2023-05-01T14:43:49;5.13;;;2.10;;
72127;SDS011;60000;51.030;7.024;2023-05-01T14:46:20;4.30;;;1.70;;
72127;SDS011;60000;51.030;7.024;2023-05-01T14:48:54;4.60;;;1.73;;
72127;SDS011;60000;51.030;7.024;2023-05-01T14:51:20;5.53;;;1.80;;
72127;SDS011;60000;51.030;7.024;2023-05-01T14:53:45;4.10;;;1.70;;
72127;SDS011;60000;51.030;7.024;2023-05-01T14:56:11;4.47;;;2.05;;
72127;SDS011;60000;51.030;7.024;2023-05-01T14:58:36;4.23;;;1.70;;
72127;SDS011;60000;51.030;7.024;2023-05-01T15:01:02;4.75;;;1.80;;
72127;SDS011;60000;51.030;7.024;2023-05-01T15:03:28;4.03;;;1.70;;
72127;SDS011;60000;51.030;7.024;2023-05-01T15:05:53;5.33;;;1.90;;
72127;SDS011;60000;51.030;7.024;2023-05-01T15:08:19;5.57;;;2.63;;
72127;SDS011;60000;51.030;7.024;2023-05-01T15:10:44;6.77;;;2.90;;
72127;SDS011;60000;51.030;7.024;2023-05-01T15:13:10;5.40;;;2.73;;
72127;SDS011;60000;51.030;7.024;2023-05-01T15:15:35;8.43;;;3.47;;
72127;SDS011;60000;51.030;7.024;2023-05-01T15:18:01;8.65;;;4.38;;
72127;SDS011;60000;51.030;7.024;2023-05-01T15:20:27;11.20;;;4.95;;
72127;SDS011;60000;51.030;7.024;2023-05-01T15:22:53;12.70;;;6.27;;
72127;SDS011;60000;51.030;7.024;2023-05-01T15:25:18;13.63;;;7.00;;
72127;SDS011;60000;51.030;7.024;2023-05-01T15:27:44;13.45;;;7.55;;
72127;SDS011;60000;51.030;7.024;2023-05-01T15:30:10;13.45;;;7.55;;
72127;SDS011;60000;51.030;7.024;2023-05-01T15:32:35;11.20;;;5.70;;